Milo, Arkansas
Current Conditions -  °F | °C
As of 7:55 AM on Monday 22 Dec 2014 (Local Time) from KBQP Reporting Station
Haze Haze  
Wind Chill: 50°   Ceiling: 200
Heat Index: 50°   Visibility: 1.5mi
Dew Point: 50°   Wind: 3mph
Humidity: 98%   Direction: 160°SSE
Pressure: 29.81"   Gusts: NA
Location:  33.1762°N, 91.7595°W
Report Text: KBQP 221355Z AUTO 16003KT 1 1/2SM BR OVC002 10/10 A2981 RMK AO2 T01010098
Loading
Personal Weather Stations






























Interactive Weather Map New forecast layout! Learn more

10-Day Weather Forecast

Advertisements
Track Severe Weather on mobile